logo tempoitalia

Diretta Meteo Kogalniceanu, Romanialunedì 31 agosto ore 08:00

Mappa
Sereno 21 °C Sereno 24 Ore: T.min 16 T.max 29
Ponente Nord Km/h 11.1 Punto di rugiada: 16 °C Umidità: 73% Visibilità: 10 Km
Il sole sorge alle: 06:27 Il sole tramonta alle: 19:45
31 Agosto 2026 08:00 tempo osservato: Sereno Sereno 21 73 1018 vento: Nord N 11.1
31 Agosto 2026 07:30 tempo osservato: Sereno Sereno 19 77 1018 vento: Nord N 11.1
31 Agosto 2026 07:00 tempo osservato: Sereno Sereno 16 87 1018 vento: Nord N 13
31 Agosto 2026 06:30 tempo osservato: Sereno Sereno 17 88 1018 vento: Nord N/NO 11.1
31 Agosto 2026 06:00 tempo osservato: Sereno Sereno 16 87 1018 vento: Nord N 14.8
31 Agosto 2026 05:30 tempo osservato: Sereno Sereno 17 88 1018 vento: Nord N 11.1
31 Agosto 2026 05:00 tempo osservato: Sereno Sereno 17 93 1018 vento: Nord N 11.1
31 Agosto 2026 04:30 tempo osservato: Sereno Sereno 17 93 1018 vento: Nord N 11.1
31 Agosto 2026 04:00 tempo osservato: Sereno Sereno 17 93 1018 vento: Nord N 11.1
31 Agosto 2026 03:30 tempo osservato: Sereno Sereno 17 93 1018 vento: Nord N 9.3
31 Agosto 2026 03:00 tempo osservato: Sereno Sereno 17 93 1018 vento: Nord N/NE 9.3
31 Agosto 2026 02:30 tempo osservato: Sereno Sereno 17 93 1018 vento: Nord N/NE 11.1
31 Agosto 2026 02:00 tempo osservato: Sereno Sereno 17 93 1018 vento: Nord N/NE 7.4
31 Agosto 2026 01:30 tempo osservato: Sereno Sereno 18 88 1018 vento: Nord N 9.3
31 Agosto 2026 01:00 tempo osservato: Sereno Sereno 18 93 1018 vento: Nord N 9.3
31 Agosto 2026 00:30 tempo osservato: Sereno Sereno 18 93 1018 vento: Nord N 7.4
31 Agosto 2026 00:00 tempo osservato: Sereno Sereno 18 93 1018 vento: Nord N/NE 7.4
30 Agosto 2026 23:30 tempo osservato: Sereno Sereno 19 88 1018 vento: Nord N 5.5
30 Agosto 2026 23:00 tempo osservato: Sereno Sereno 19 88 1018 vento: Nord N 5.5
30 Agosto 2026 22:30 tempo osservato: Sereno Sereno 20 77 1018 vento: Nord NE 7.4
30 Agosto 2026 22:00 tempo osservato: Sereno Sereno 20 82 1018 vento: Nord NE 9.3
30 Agosto 2026 21:30 tempo osservato: Sereno Sereno 20 77 1018 vento: Nord NE 9.3
30 Agosto 2026 21:00 tempo osservato: Sereno Sereno 22 73 1018 vento: Nord N 5.5
30 Agosto 2026 20:30 tempo osservato: Sereno Sereno 22 68 1018 vento: Nord E 7.4
30 Agosto 2026 20:00 tempo osservato: Sereno Sereno 22 64 1017 vento: Nord E/NE 11.1
30 Agosto 2026 19:30 tempo osservato: Sereno Sereno 24 53 1017 vento: Nord E/NE 11.1
30 Agosto 2026 19:00 tempo osservato: Sereno Sereno 26 44 1017 vento: Nord E 14.8
30 Agosto 2026 18:30 tempo osservato: Sereno Sereno 27 36 1018 vento: Nord E 14.8
30 Agosto 2026 18:00 tempo osservato: Sereno Sereno 28 34 1018 vento: Nord E/NE 16.7
30 Agosto 2026 17:30 tempo osservato: Sereno Sereno 28 34 1018 vento: Nord E 14.8
30 Agosto 2026 17:00 tempo osservato: Sereno Sereno 29 32 1018 vento: Nord E 18.5
30 Agosto 2026 16:30 tempo osservato: Sereno Sereno 28 32 1018 vento: Nord E 18.5
30 Agosto 2026 16:00 tempo osservato: Sereno Sereno 29 32 1018 vento: Nord E 18.5
30 Agosto 2026 15:30 tempo osservato: Sereno Sereno 29 35 1018 vento: Nord E 18.5
30 Agosto 2026 15:00 tempo osservato: Sereno Sereno 29 37 1018 vento: Nord E 18.5
30 Agosto 2026 14:30 tempo osservato: Sereno Sereno 28 42 1018 vento: Nord E/NE 18.5
30 Agosto 2026 14:00 tempo osservato: Sereno Sereno 29 39 1018 vento: Nord E/NE 20.3
30 Agosto 2026 13:30 tempo osservato: Sereno Sereno 29 45 1018 vento: Nord E/NE 16.7
30 Agosto 2026 13:00 tempo osservato: Sereno Sereno 29 45 1018 vento: Nord E/NE 16.7
30 Agosto 2026 12:30 tempo osservato: Sereno Sereno 28 51 1018 vento: Nord E/NE 16.7
30 Agosto 2026 12:00 tempo osservato: Sereno Sereno 28 39 1018 vento: Nord E/NE 18.5
30 Agosto 2026 11:30 tempo osservato: Sereno Sereno 28 42 1018 vento: Nord NE 18.5
30 Agosto 2026 11:00 tempo osservato: Sereno Sereno 27 47 1018 vento: Nord E/NE 16.7
30 Agosto 2026 10:30 tempo osservato: Sereno Sereno 27 50 1018 vento: Nord NE 18.5
30 Agosto 2026 10:00 tempo osservato: Sereno Sereno 26 54 1017 vento: Nord NE 14.8
30 Agosto 2026 09:30 tempo osservato: Sereno Sereno 26 57 1017 vento: Nord N/NE 16.7
30 Agosto 2026 09:00 tempo osservato: Sereno Sereno 24 64 1017 vento: Nord N 16.7